Terminal Aerodrome Forecast
Issued by NWS

Current Version | Previous Version | Text Only | Print | Product List | Glossary On
Versions: 1 2 3 4 5 6 7 8 9 10 11 12
000
FTUS45 KRIW 010500
TAFWRL
TAF
KWRL 010523Z 0106/0206 VRB04KT P6SM SCT250
     FM012000 VRB05KT P6SM SCT100
     FM020300 VRB05KT P6SM FEW110 BKN250=

USA.gov is the U.S. government's official web portal to all federal, state and local government web resources and services.